sensor_id;sensor_type;location;lat;lon;timestamp;temperature;humidity
20977;DHT22;10647;51.016;3.720;2022-10-31T00:04:18;14.40;99.90
20977;DHT22;10647;51.016;3.720;2022-10-31T00:06:52;14.40;99.90
20977;DHT22;10647;51.016;3.720;2022-10-31T00:09:19;14.40;99.90
20977;DHT22;10647;51.016;3.720;2022-10-31T00:11:47;14.30;99.90
20977;DHT22;10647;51.016;3.720;2022-10-31T00:14:14;14.30;99.90
20977;DHT22;10647;51.016;3.720;2022-10-31T00:16:42;14.30;99.90
20977;DHT22;10647;51.016;3.720;2022-10-31T00:19:11;14.20;99.90
20977;DHT22;10647;51.016;3.720;2022-10-31T00:21:39;14.20;99.90
20977;DHT22;10647;51.016;3.720;2022-10-31T00:24:06;14.20;99.90
20977;DHT22;10647;51.016;3.720;2022-10-31T00:26:34;14.10;99.90
20977;DHT22;10647;51.016;3.720;2022-10-31T00:29:07;14.10;99.90
20977;DHT22;10647;51.016;3.720;2022-10-31T00:31:35;14.10;99.90
20977;DHT22;10647;51.016;3.720;2022-10-31T00:34:02;14.10;99.90
20977;DHT22;10647;51.016;3.720;2022-10-31T00:36:30;14.00;99.90
20977;DHT22;10647;51.016;3.720;2022-10-31T00:38:58;14.00;99.90
20977;DHT22;10647;51.016;3.720;2022-10-31T00:41:26;14.00;99.90
20977;DHT22;10647;51.016;3.720;2022-10-31T00:43:54;14.00;99.90
20977;DHT22;10647;51.016;3.720;2022-10-31T00:46:21;13.90;99.90
20977;DHT22;10647;51.016;3.720;2022-10-31T00:48:49;13.90;99.90
20977;DHT22;10647;51.016;3.720;2022-10-31T00:51:16;13.80;99.90
20977;DHT22;10647;51.016;3.720;2022-10-31T00:53:44;13.90;99.90
20977;DHT22;10647;51.016;3.720;2022-10-31T00:56:11;13.80;99.90
20977;DHT22;10647;51.016;3.720;2022-10-31T00:58:39;13.80;99.90
20977;DHT22;10647;51.016;3.720;2022-10-31T01:01:06;13.80;99.90
20977;DHT22;10647;51.016;3.720;2022-10-31T01:03:34;13.70;99.90
20977;DHT22;10647;51.016;3.720;2022-10-31T01:06:09;13.70;99.90
20977;DHT22;10647;51.016;3.720;2022-10-31T01:08:32;13.70;99.90
20977;DHT22;10647;51.016;3.720;2022-10-31T01:13:35;13.60;99.90
20977;DHT22;10647;51.016;3.720;2022-10-31T01:16:04;13.60;99.90
20977;DHT22;10647;51.016;3.720;2022-10-31T01:18:33;13.60;99.90
20977;DHT22;10647;51.016;3.720;2022-10-31T01:21:03;13.50;99.90
20977;DHT22;10647;51.016;3.720;2022-10-31T01:23:31;13.50;99.90
20977;DHT22;10647;51.016;3.720;2022-10-31T01:26:12;13.60;99.90
20977;DHT22;10647;51.016;3.720;2022-10-31T01:29:05;13.50;99.90
20977;DHT22;10647;51.016;3.720;2022-10-31T01:31:36;13.50;99.90
20977;DHT22;10647;51.016;3.720;2022-10-31T01:34:04;13.50;99.90
20977;DHT22;10647;51.016;3.720;2022-10-31T01:36:35;13.40;99.90
20977;DHT22;10647;51.016;3.720;2022-10-31T01:39:14;13.40;99.90
20977;DHT22;10647;51.016;3.720;2022-10-31T01:41:45;13.40;99.90
20977;DHT22;10647;51.016;3.720;2022-10-31T01:47:11;13.30;99.90
20977;DHT22;10647;51.016;3.720;2022-10-31T01:49:46;13.30;99.90
20977;DHT22;10647;51.016;3.720;2022-10-31T01:52:28;13.30;99.90
20977;DHT22;10647;51.016;3.720;2022-10-31T01:55:12;13.30;99.90
20977;DHT22;10647;51.016;3.720;2022-10-31T01:57:46;13.30;99.90
20977;DHT22;10647;51.016;3.720;2022-10-31T02:00:15;13.30;99.90
20977;DHT22;10647;51.016;3.720;2022-10-31T02:02:43;13.20;99.90
20977;DHT22;10647;51.016;3.720;2022-10-31T02:05:14;13.20;99.90
20977;DHT22;10647;51.016;3.720;2022-10-31T02:08:05;13.20;99.90
20977;DHT22;10647;51.016;3.720;2022-10-31T02:10:36;13.20;99.90
20977;DHT22;10647;51.016;3.720;2022-10-31T02:13:07;13.20;99.90
20977;DHT22;10647;51.016;3.720;2022-10-31T02:15:37;13.20;99.90
20977;DHT22;10647;51.016;3.720;2022-10-31T02:18:07;13.10;99.90
20977;DHT22;10647;51.016;3.720;2022-10-31T02:20:48;13.10;99.90
20977;DHT22;10647;51.016;3.720;2022-10-31T02:34:17;13.00;99.90
20977;DHT22;10647;51.016;3.720;2022-10-31T02:40:01;12.90;99.90
20977;DHT22;10647;51.016;3.720;2022-10-31T02:42:39;13.00;99.90
20977;DHT22;10647;51.016;3.720;2022-10-31T02:45:19;13.00;99.90
20977;DHT22;10647;51.016;3.720;2022-10-31T02:47:46;12.90;99.90
20977;DHT22;10647;51.016;3.720;2022-10-31T02:53:03;12.90;99.90
20977;DHT22;10647;51.016;3.720;2022-10-31T02:58:21;12.90;99.90
20977;DHT22;10647;51.016;3.720;2022-10-31T03:01:01;12.90;99.90
20977;DHT22;10647;51.016;3.720;2022-10-31T03:03:40;12.90;99.90
20977;DHT22;10647;51.016;3.720;2022-10-31T03:06:09;12.90;99.90
20977;DHT22;10647;51.016;3.720;2022-10-31T03:08:45;12.80;99.90
20977;DHT22;10647;51.016;3.720;2022-10-31T03:11:29;12.80;99.90
20977;DHT22;10647;51.016;3.720;2022-10-31T03:14:10;12.80;99.90
20977;DHT22;10647;51.016;3.720;2022-10-31T03:16:49;12.80;99.90
20977;DHT22;10647;51.016;3.720;2022-10-31T03:19:24;12.80;99.90
20977;DHT22;10647;51.016;3.720;2022-10-31T03:22:10;12.80;99.90
20977;DHT22;10647;51.016;3.720;2022-10-31T03:24:38;12.80;99.90
20977;DHT22;10647;51.016;3.720;2022-10-31T03:27:08;12.70;99.90
20977;DHT22;10647;51.016;3.720;2022-10-31T03:35:17;12.80;99.90
20977;DHT22;10647;51.016;3.720;2022-10-31T03:37:45;12.80;99.90
20977;DHT22;10647;51.016;3.720;2022-10-31T03:40:21;12.80;99.90
20977;DHT22;10647;51.016;3.720;2022-10-31T03:42:58;12.80;99.90
20977;DHT22;10647;51.016;3.720;2022-10-31T03:45:27;12.80;99.90
20977;DHT22;10647;51.016;3.720;2022-10-31T03:47:57;12.70;99.90
20977;DHT22;10647;51.016;3.720;2022-10-31T03:50:28;12.70;99.90
20977;DHT22;10647;51.016;3.720;2022-10-31T03:52:58;12.70;99.90
20977;DHT22;10647;51.016;3.720;2022-10-31T03:55:48;12.70;99.90
20977;DHT22;10647;51.016;3.720;2022-10-31T03:58:21;12.70;99.90
20977;DHT22;10647;51.016;3.720;2022-10-31T04:00:51;12.60;99.90
20977;DHT22;10647;51.016;3.720;2022-10-31T04:03:22;12.60;99.90
20977;DHT22;10647;51.016;3.720;2022-10-31T04:05:58;12.60;99.90
20977;DHT22;10647;51.016;3.720;2022-10-31T04:08:28;12.60;99.90
20977;DHT22;10647;51.016;3.720;2022-10-31T04:10:58;12.60;99.90
20977;DHT22;10647;51.016;3.720;2022-10-31T04:13:34;12.50;99.90
20977;DHT22;10647;51.016;3.720;2022-10-31T04:16:03;12.50;99.90
20977;DHT22;10647;51.016;3.720;2022-10-31T04:18:31;12.50;99.90
20977;DHT22;10647;51.016;3.720;2022-10-31T04:21:06;12.50;99.90
20977;DHT22;10647;51.016;3.720;2022-10-31T04:23:35;12.50;99.90
20977;DHT22;10647;51.016;3.720;2022-10-31T04:26:03;12.50;99.90
20977;DHT22;10647;51.016;3.720;2022-10-31T04:28:32;12.50;99.90
20977;DHT22;10647;51.016;3.720;2022-10-31T04:31:05;12.50;99.90
20977;DHT22;10647;51.016;3.720;2022-10-31T04:33:33;12.50;99.90
20977;DHT22;10647;51.016;3.720;2022-10-31T04:36:02;12.50;99.90
20977;DHT22;10647;51.016;3.720;2022-10-31T04:38:31;12.50;99.90
20977;DHT22;10647;51.016;3.720;2022-10-31T04:40:59;12.40;99.90
20977;DHT22;10647;51.016;3.720;2022-10-31T04:43:27;12.40;99.90
20977;DHT22;10647;51.016;3.720;2022-10-31T04:45:55;12.40;99.90
20977;DHT22;10647;51.016;3.720;2022-10-31T04:48:29;12.40;99.90
20977;DHT22;10647;51.016;3.720;2022-10-31T04:51:00;12.40;99.90
20977;DHT22;10647;51.016;3.720;2022-10-31T04:53:31;12.40;99.90
20977;DHT22;10647;51.016;3.720;2022-10-31T04:55:58;12.30;99.90
20977;DHT22;10647;51.016;3.720;2022-10-31T04:58:27;12.30;99.90
20977;DHT22;10647;51.016;3.720;2022-10-31T05:00:56;12.30;99.90
20977;DHT22;10647;51.016;3.720;2022-10-31T05:03:23;12.30;99.90
20977;DHT22;10647;51.016;3.720;2022-10-31T05:05:53;12.20;99.90
20977;DHT22;10647;51.016;3.720;2022-10-31T05:08:23;12.30;99.90
20977;DHT22;10647;51.016;3.720;2022-10-31T05:10:51;12.20;99.90
20977;DHT22;10647;51.016;3.720;2022-10-31T05:13:18;12.30;99.90
20977;DHT22;10647;51.016;3.720;2022-10-31T05:15:46;12.20;99.90
20977;DHT22;10647;51.016;3.720;2022-10-31T05:18:13;12.20;99.90
20977;DHT22;10647;51.016;3.720;2022-10-31T05:20:41;12.20;99.90
20977;DHT22;10647;51.016;3.720;2022-10-31T05:23:08;12.20;99.90
20977;DHT22;10647;51.016;3.720;2022-10-31T05:25:36;12.20;99.90
20977;DHT22;10647;51.016;3.720;2022-10-31T05:28:04;12.20;99.90
20977;DHT22;10647;51.016;3.720;2022-10-31T05:30:32;12.20;99.90
20977;DHT22;10647;51.016;3.720;2022-10-31T05:33:03;12.20;99.90
20977;DHT22;10647;51.016;3.720;2022-10-31T05:35:32;12.20;99.90
20977;DHT22;10647;51.016;3.720;2022-10-31T05:38:00;12.10;99.90
20977;DHT22;10647;51.016;3.720;2022-10-31T05:40:28;12.10;99.90
20977;DHT22;10647;51.016;3.720;2022-10-31T05:42:56;12.10;99.90
20977;DHT22;10647;51.016;3.720;2022-10-31T05:45:24;12.10;99.90
20977;DHT22;10647;51.016;3.720;2022-10-31T05:47:54;12.10;99.90
20977;DHT22;10647;51.016;3.720;2022-10-31T05:50:22;12.10;99.90
20977;DHT22;10647;51.016;3.720;2022-10-31T05:55:44;12.10;99.90
20977;DHT22;10647;51.016;3.720;2022-10-31T05:58:12;12.20;99.90
20977;DHT22;10647;51.016;3.720;2022-10-31T06:00:45;12.20;99.90
20977;DHT22;10647;51.016;3.720;2022-10-31T06:03:14;12.30;99.90
20977;DHT22;10647;51.016;3.720;2022-10-31T06:05:41;12.30;99.90
20977;DHT22;10647;51.016;3.720;2022-10-31T06:08:12;12.40;99.90
20977;DHT22;10647;51.016;3.720;2022-10-31T06:10:39;12.40;99.90
20977;DHT22;10647;51.016;3.720;2022-10-31T06:13:08;12.50;99.90
20977;DHT22;10647;51.016;3.720;2022-10-31T06:15:35;12.60;99.90
20977;DHT22;10647;51.016;3.720;2022-10-31T06:18:05;12.70;99.90
20977;DHT22;10647;51.016;3.720;2022-10-31T06:20:34;12.80;99.90
20977;DHT22;10647;51.016;3.720;2022-10-31T06:25:51;12.90;99.90
20977;DHT22;10647;51.016;3.720;2022-10-31T06:28:19;12.90;99.90
20977;DHT22;10647;51.016;3.720;2022-10-31T06:30:50;13.00;99.90
20977;DHT22;10647;51.016;3.720;2022-10-31T06:33:17;13.00;99.90
20977;DHT22;10647;51.016;3.720;2022-10-31T06:35:46;13.00;99.90
20977;DHT22;10647;51.016;3.720;2022-10-31T06:38:15;13.10;99.90
20977;DHT22;10647;51.016;3.720;2022-10-31T06:40:42;13.10;99.90
20977;DHT22;10647;51.016;3.720;2022-10-31T06:43:10;13.10;99.90
20977;DHT22;10647;51.016;3.720;2022-10-31T06:45:39;13.20;99.90
20977;DHT22;10647;51.016;3.720;2022-10-31T06:48:07;13.20;99.90
20977;DHT22;10647;51.016;3.720;2022-10-31T06:50:35;13.30;99.90
20977;DHT22;10647;51.016;3.720;2022-10-31T06:53:02;13.30;99.90
20977;DHT22;10647;51.016;3.720;2022-10-31T06:55:30;13.40;99.90
20977;DHT22;10647;51.016;3.720;2022-10-31T06:57:59;13.50;99.90
20977;DHT22;10647;51.016;3.720;2022-10-31T07:00:29;13.50;99.90
20977;DHT22;10647;51.016;3.720;2022-10-31T07:03:03;13.60;99.90
20977;DHT22;10647;51.016;3.720;2022-10-31T07:05:31;13.70;99.90
20977;DHT22;10647;51.016;3.720;2022-10-31T07:08:05;13.70;99.90
20977;DHT22;10647;51.016;3.720;2022-10-31T07:10:34;13.80;99.90
20977;DHT22;10647;51.016;3.720;2022-10-31T07:13:04;13.80;99.90
20977;DHT22;10647;51.016;3.720;2022-10-31T07:18:35;13.90;99.90
20977;DHT22;10647;51.016;3.720;2022-10-31T07:21:08;13.90;99.90
20977;DHT22;10647;51.016;3.720;2022-10-31T07:23:37;14.00;99.90
20977;DHT22;10647;51.016;3.720;2022-10-31T07:26:04;14.00;99.90
20977;DHT22;10647;51.016;3.720;2022-10-31T07:28:46;14.10;99.90
20977;DHT22;10647;51.016;3.720;2022-10-31T07:31:16;14.20;99.90
20977;DHT22;10647;51.016;3.720;2022-10-31T07:33:52;14.20;99.90
20977;DHT22;10647;51.016;3.720;2022-10-31T07:36:20;14.30;99.90
20977;DHT22;10647;51.016;3.720;2022-10-31T07:38:53;14.40;99.90
20977;DHT22;10647;51.016;3.720;2022-10-31T07:41:27;14.50;99.90
20977;DHT22;10647;51.016;3.720;2022-10-31T07:43:54;14.50;99.90
20977;DHT22;10647;51.016;3.720;2022-10-31T07:46:22;14.60;99.90
20977;DHT22;10647;51.016;3.720;2022-10-31T07:48:51;14.60;99.90
20977;DHT22;10647;51.016;3.720;2022-10-31T07:51:24;14.70;99.90
20977;DHT22;10647;51.016;3.720;2022-10-31T07:53:53;14.70;99.90
20977;DHT22;10647;51.016;3.720;2022-10-31T07:56:26;14.80;99.90
20977;DHT22;10647;51.016;3.720;2022-10-31T07:58:53;14.80;99.90
20977;DHT22;10647;51.016;3.720;2022-10-31T08:01:21;14.90;99.90
20977;DHT22;10647;51.016;3.720;2022-10-31T08:03:48;14.90;99.90
20977;DHT22;10647;51.016;3.720;2022-10-31T08:06:33;15.00;99.90
20977;DHT22;10647;51.016;3.720;2022-10-31T08:09:06;15.00;99.90
20977;DHT22;10647;51.016;3.720;2022-10-31T08:11:35;15.10;99.90
20977;DHT22;10647;51.016;3.720;2022-10-31T08:14:02;15.00;99.90
20977;DHT22;10647;51.016;3.720;2022-10-31T08:16:30;15.10;99.90
20977;DHT22;10647;51.016;3.720;2022-10-31T08:19:20;15.20;99.90
20977;DHT22;10647;51.016;3.720;2022-10-31T08:21:51;15.30;99.90
20977;DHT22;10647;51.016;3.720;2022-10-31T08:24:27;15.20;99.90
20977;DHT22;10647;51.016;3.720;2022-10-31T08:26:54;15.20;99.90
20977;DHT22;10647;51.016;3.720;2022-10-31T08:29:22;15.20;99.90
20977;DHT22;10647;51.016;3.720;2022-10-31T08:31:51;15.20;99.90
20977;DHT22;10647;51.016;3.720;2022-10-31T08:34:20;15.20;99.90
20977;DHT22;10647;51.016;3.720;2022-10-31T08:36:47;15.40;99.90
20977;DHT22;10647;51.016;3.720;2022-10-31T08:39:18;15.50;99.90
20977;DHT22;10647;51.016;3.720;2022-10-31T08:41:48;15.70;99.90
20977;DHT22;10647;51.016;3.720;2022-10-31T08:44:16;15.80;99.90
20977;DHT22;10647;51.016;3.720;2022-10-31T08:46:44;15.90;99.90
20977;DHT22;10647;51.016;3.720;2022-10-31T08:49:11;16.10;99.90
20977;DHT22;10647;51.016;3.720;2022-10-31T08:51:47;16.20;99.90
20977;DHT22;10647;51.016;3.720;2022-10-31T08:54:23;16.30;99.90
20977;DHT22;10647;51.016;3.720;2022-10-31T08:56:55;16.50;99.90
20977;DHT22;10647;51.016;3.720;2022-10-31T08:59:29;16.60;99.90
20977;DHT22;10647;51.016;3.720;2022-10-31T09:01:57;16.70;99.90
20977;DHT22;10647;51.016;3.720;2022-10-31T09:04:30;16.70;99.90
20977;DHT22;10647;51.016;3.720;2022-10-31T09:06:58;16.80;99.90
20977;DHT22;10647;51.016;3.720;2022-10-31T09:09:26;16.80;99.90
20977;DHT22;10647;51.016;3.720;2022-10-31T09:11:55;16.80;99.90
20977;DHT22;10647;51.016;3.720;2022-10-31T09:14:28;16.80;99.90
20977;DHT22;10647;51.016;3.720;2022-10-31T09:16:58;16.80;99.90
20977;DHT22;10647;51.016;3.720;2022-10-31T09:19:32;16.80;99.90
20977;DHT22;10647;51.016;3.720;2022-10-31T09:22:00;16.80;99.90
20977;DHT22;10647;51.016;3.720;2022-10-31T09:24:28;16.80;99.90
20977;DHT22;10647;51.016;3.720;2022-10-31T09:26:58;16.90;99.90
20977;DHT22;10647;51.016;3.720;2022-10-31T09:29:29;16.90;99.90
20977;DHT22;10647;51.016;3.720;2022-10-31T09:31:58;16.90;99.90
20977;DHT22;10647;51.016;3.720;2022-10-31T09:34:32;17.00;99.90
20977;DHT22;10647;51.016;3.720;2022-10-31T09:37:00;17.10;99.90
20977;DHT22;10647;51.016;3.720;2022-10-31T09:39:27;17.20;99.90
20977;DHT22;10647;51.016;3.720;2022-10-31T09:48:15;17.60;99.90
20977;DHT22;10647;51.016;3.720;2022-10-31T09:50:55;17.80;99.90
20977;DHT22;10647;51.016;3.720;2022-10-31T09:56:23;18.00;99.90
20977;DHT22;10647;51.016;3.720;2022-10-31T09:58:56;18.10;99.90
20977;DHT22;10647;51.016;3.720;2022-10-31T10:01:33;18.10;99.90
20977;DHT22;10647;51.016;3.720;2022-10-31T10:04:37;18.10;99.90
20977;DHT22;10647;51.016;3.720;2022-10-31T10:07:11;18.20;99.90
20977;DHT22;10647;51.016;3.720;2022-10-31T10:09:38;18.40;99.90
20977;DHT22;10647;51.016;3.720;2022-10-31T10:12:24;18.50;99.90
20977;DHT22;10647;51.016;3.720;2022-10-31T10:15:01;18.60;99.90
20977;DHT22;10647;51.016;3.720;2022-10-31T10:25:26;18.50;99.90
20977;DHT22;10647;51.016;3.720;2022-10-31T10:31:08;18.80;99.90
20977;DHT22;10647;51.016;3.720;2022-10-31T10:39:40;19.30;99.90
20977;DHT22;10647;51.016;3.720;2022-10-31T10:42:23;19.20;99.90
20977;DHT22;10647;51.016;3.720;2022-10-31T10:45:43;19.20;99.90
20977;DHT22;10647;51.016;3.720;2022-10-31T10:48:36;19.10;99.90
20977;DHT22;10647;51.016;3.720;2022-10-31T10:51:02;19.00;99.90
20977;DHT22;10647;51.016;3.720;2022-10-31T10:53:52;19.00;99.90
20977;DHT22;10647;51.016;3.720;2022-10-31T11:01:54;19.20;99.90
20977;DHT22;10647;51.016;3.720;2022-10-31T11:04:33;19.40;99.90
20977;DHT22;10647;51.016;3.720;2022-10-31T11:07:07;19.40;99.90
20977;DHT22;10647;51.016;3.720;2022-10-31T11:09:37;19.60;99.90
20977;DHT22;10647;51.016;3.720;2022-10-31T11:12:11;19.70;99.90
20977;DHT22;10647;51.016;3.720;2022-10-31T11:17:46;20.00;99.90
20977;DHT22;10647;51.016;3.720;2022-10-31T11:22:44;20.10;99.90
20977;DHT22;10647;51.016;3.720;2022-10-31T11:25:20;20.30;99.90
20977;DHT22;10647;51.016;3.720;2022-10-31T11:30:45;20.60;99.90
20977;DHT22;10647;51.016;3.720;2022-10-31T11:33:18;20.80;99.90
20977;DHT22;10647;51.016;3.720;2022-10-31T11:35:47;20.90;99.90
20977;DHT22;10647;51.016;3.720;2022-10-31T11:38:18;21.00;99.90
20977;DHT22;10647;51.016;3.720;2022-10-31T11:43:46;21.10;99.90
20977;DHT22;10647;51.016;3.720;2022-10-31T11:46:13;21.20;99.90
20977;DHT22;10647;51.016;3.720;2022-10-31T11:48:45;21.30;99.90
20977;DHT22;10647;51.016;3.720;2022-10-31T11:51:11;21.40;99.90
20977;DHT22;10647;51.016;3.720;2022-10-31T11:53:48;21.40;99.90
20977;DHT22;10647;51.016;3.720;2022-10-31T11:56:13;21.40;99.90
20977;DHT22;10647;51.016;3.720;2022-10-31T11:58:42;21.40;99.90
20977;DHT22;10647;51.016;3.720;2022-10-31T12:01:25;21.40;99.90
20977;DHT22;10647;51.016;3.720;2022-10-31T12:07:11;21.20;99.90
20977;DHT22;10647;51.016;3.720;2022-10-31T12:09:44;21.30;99.90
20977;DHT22;10647;51.016;3.720;2022-10-31T12:12:27;21.40;99.90
20977;DHT22;10647;51.016;3.720;2022-10-31T12:18:09;21.60;99.90
20977;DHT22;10647;51.016;3.720;2022-10-31T12:23:21;21.50;99.90
20977;DHT22;10647;51.016;3.720;2022-10-31T12:26:07;21.50;99.90
20977;DHT22;10647;51.016;3.720;2022-10-31T12:29:03;21.40;99.90
20977;DHT22;10647;51.016;3.720;2022-10-31T12:31:55;21.30;99.90
20977;DHT22;10647;51.016;3.720;2022-10-31T12:43:19;21.40;99.90
20977;DHT22;10647;51.016;3.720;2022-10-31T12:46:00;21.40;99.90
20977;DHT22;10647;51.016;3.720;2022-10-31T12:49:27;21.30;99.90
20977;DHT22;10647;51.016;3.720;2022-10-31T12:51:40;21.30;99.90
20977;DHT22;10647;51.016;3.720;2022-10-31T12:57:13;21.10;99.90
20977;DHT22;10647;51.016;3.720;2022-10-31T13:00:03;21.00;99.90
20977;DHT22;10647;51.016;3.720;2022-10-31T13:02:38;20.90;99.90
20977;DHT22;10647;51.016;3.720;2022-10-31T13:05:31;20.90;99.90
20977;DHT22;10647;51.016;3.720;2022-10-31T13:10:40;21.00;99.90
20977;DHT22;10647;51.016;3.720;2022-10-31T13:13:24;21.50;99.90
20977;DHT22;10647;51.016;3.720;2022-10-31T13:16:04;22.60;99.90
20977;DHT22;10647;51.016;3.720;2022-10-31T13:18:40;23.40;99.90
20977;DHT22;10647;51.016;3.720;2022-10-31T13:21:17;24.40;99.90
20977;DHT22;10647;51.016;3.720;2022-10-31T13:23:45;24.90;99.90
20977;DHT22;10647;51.016;3.720;2022-10-31T13:26:34;25.80;99.90
20977;DHT22;10647;51.016;3.720;2022-10-31T13:31:54;24.80;99.90
20977;DHT22;10647;51.016;3.720;2022-10-31T13:34:28;25.00;99.90
20977;DHT22;10647;51.016;3.720;2022-10-31T13:39:46;24.70;99.90
20977;DHT22;10647;51.016;3.720;2022-10-31T13:42:17;25.60;99.90
20977;DHT22;10647;51.016;3.720;2022-10-31T13:44:43;25.70;99.90
20977;DHT22;10647;51.016;3.720;2022-10-31T13:47:29;26.30;99.90
20977;DHT22;10647;51.016;3.720;2022-10-31T13:50:20;27.40;99.90
20977;DHT22;10647;51.016;3.720;2022-10-31T13:52:48;28.20;99.90
20977;DHT22;10647;51.016;3.720;2022-10-31T13:55:36;28.70;99.90
20977;DHT22;10647;51.016;3.720;2022-10-31T14:03:40;29.00;99.90
20977;DHT22;10647;51.016;3.720;2022-10-31T14:06:09;28.90;99.90
20977;DHT22;10647;51.016;3.720;2022-10-31T14:08:48;28.60;99.90
20977;DHT22;10647;51.016;3.720;2022-10-31T14:11:25;27.30;99.90
20977;DHT22;10647;51.016;3.720;2022-10-31T14:13:55;26.40;99.90
20977;DHT22;10647;51.016;3.720;2022-10-31T14:16:32;25.60;99.90
20977;DHT22;10647;51.016;3.720;2022-10-31T14:19:22;24.90;99.90
20977;DHT22;10647;51.016;3.720;2022-10-31T14:21:41;24.60;99.90
20977;DHT22;10647;51.016;3.720;2022-10-31T14:27:01;24.50;99.90
20977;DHT22;10647;51.016;3.720;2022-10-31T14:29:32;24.20;99.90
20977;DHT22;10647;51.016;3.720;2022-10-31T14:43:05;23.10;99.90
20977;DHT22;10647;51.016;3.720;2022-10-31T14:45:41;23.40;99.90
20977;DHT22;10647;51.016;3.720;2022-10-31T14:48:32;23.80;99.90
20977;DHT22;10647;51.016;3.720;2022-10-31T14:51:09;24.00;99.90
20977;DHT22;10647;51.016;3.720;2022-10-31T14:53:58;24.10;99.90
20977;DHT22;10647;51.016;3.720;2022-10-31T14:56:09;23.90;99.90
20977;DHT22;10647;51.016;3.720;2022-10-31T14:58:45;23.60;99.90
20977;DHT22;10647;51.016;3.720;2022-10-31T15:04:15;23.10;99.90
20977;DHT22;10647;51.016;3.720;2022-10-31T15:06:49;22.80;99.90
20977;DHT22;10647;51.016;3.720;2022-10-31T15:09:34;22.50;99.90
20977;DHT22;10647;51.016;3.720;2022-10-31T15:14:52;21.90;99.90
20977;DHT22;10647;51.016;3.720;2022-10-31T15:17:26;21.50;99.90
20977;DHT22;10647;51.016;3.720;2022-10-31T15:19:54;21.30;99.90
20977;DHT22;10647;51.016;3.720;2022-10-31T15:22:27;21.10;99.90
20977;DHT22;10647;51.016;3.720;2022-10-31T15:25:00;21.00;99.90
20977;DHT22;10647;51.016;3.720;2022-10-31T15:27:32;20.90;99.90
20977;DHT22;10647;51.016;3.720;2022-10-31T15:30:15;20.90;99.90
20977;DHT22;10647;51.016;3.720;2022-10-31T15:32:33;20.90;99.90
20977;DHT22;10647;51.016;3.720;2022-10-31T15:35:08;20.80;99.90
20977;DHT22;10647;51.016;3.720;2022-10-31T15:37:37;20.80;99.90
20977;DHT22;10647;51.016;3.720;2022-10-31T15:40:14;20.80;99.90
20977;DHT22;10647;51.016;3.720;2022-10-31T15:42:51;20.70;99.90
20977;DHT22;10647;51.016;3.720;2022-10-31T15:45:23;20.50;99.90
20977;DHT22;10647;51.016;3.720;2022-10-31T15:47:59;20.40;99.90
20977;DHT22;10647;51.016;3.720;2022-10-31T15:50:54;20.30;99.90
20977;DHT22;10647;51.016;3.720;2022-10-31T15:53:21;20.20;99.90
20977;DHT22;10647;51.016;3.720;2022-10-31T15:56:03;20.10;99.90
20977;DHT22;10647;51.016;3.720;2022-10-31T15:58:39;19.90;99.90
20977;DHT22;10647;51.016;3.720;2022-10-31T16:01:18;19.80;99.90
20977;DHT22;10647;51.016;3.720;2022-10-31T16:03:36;19.70;99.90
20977;DHT22;10647;51.016;3.720;2022-10-31T16:06:05;19.70;99.90
20977;DHT22;10647;51.016;3.720;2022-10-31T16:08:35;19.60;99.90
20977;DHT22;10647;51.016;3.720;2022-10-31T16:14:01;19.40;99.90
20977;DHT22;10647;51.016;3.720;2022-10-31T16:16:30;19.30;99.90
20977;DHT22;10647;51.016;3.720;2022-10-31T16:19:03;19.20;99.90
20977;DHT22;10647;51.016;3.720;2022-10-31T16:21:37;19.20;99.90
20977;DHT22;10647;51.016;3.720;2022-10-31T16:24:19;19.10;99.90
20977;DHT22;10647;51.016;3.720;2022-10-31T16:26:49;19.00;99.90
20977;DHT22;10647;51.016;3.720;2022-10-31T16:29:36;18.90;99.90
20977;DHT22;10647;51.016;3.720;2022-10-31T16:32:04;18.90;99.90
20977;DHT22;10647;51.016;3.720;2022-10-31T16:34:32;18.80;99.90
20977;DHT22;10647;51.016;3.720;2022-10-31T16:37:02;18.70;99.90
20977;DHT22;10647;51.016;3.720;2022-10-31T16:39:35;18.60;99.90
20977;DHT22;10647;51.016;3.720;2022-10-31T16:42:07;18.60;99.90
20977;DHT22;10647;51.016;3.720;2022-10-31T16:44:34;18.50;99.90
20977;DHT22;10647;51.016;3.720;2022-10-31T16:47:13;18.40;99.90
20977;DHT22;10647;51.016;3.720;2022-10-31T16:49:43;18.40;99.90
20977;DHT22;10647;51.016;3.720;2022-10-31T16:52:13;18.30;99.90
20977;DHT22;10647;51.016;3.720;2022-10-31T16:54:47;18.30;99.90
20977;DHT22;10647;51.016;3.720;2022-10-31T16:57:27;18.30;99.90
20977;DHT22;10647;51.016;3.720;2022-10-31T16:59:54;18.20;99.90
20977;DHT22;10647;51.016;3.720;2022-10-31T17:02:22;18.10;99.90
20977;DHT22;10647;51.016;3.720;2022-10-31T17:04:57;18.10;99.90
20977;DHT22;10647;51.016;3.720;2022-10-31T17:07:24;18.10;99.90
20977;DHT22;10647;51.016;3.720;2022-10-31T17:09:52;18.00;99.90
20977;DHT22;10647;51.016;3.720;2022-10-31T17:12:21;18.00;99.90
20977;DHT22;10647;51.016;3.720;2022-10-31T17:14:53;18.00;99.90
20977;DHT22;10647;51.016;3.720;2022-10-31T17:17:23;17.90;99.90
20977;DHT22;10647;51.016;3.720;2022-10-31T17:19:53;17.90;99.90
20977;DHT22;10647;51.016;3.720;2022-10-31T17:22:20;17.90;99.90
20977;DHT22;10647;51.016;3.720;2022-10-31T17:24:48;17.90;99.90
20977;DHT22;10647;51.016;3.720;2022-10-31T17:27:15;17.80;99.90
20977;DHT22;10647;51.016;3.720;2022-10-31T17:29:45;17.80;99.90
20977;DHT22;10647;51.016;3.720;2022-10-31T17:32:13;17.80;99.90
20977;DHT22;10647;51.016;3.720;2022-10-31T17:34:40;17.80;99.90
20977;DHT22;10647;51.016;3.720;2022-10-31T17:37:09;17.80;99.90
20977;DHT22;10647;51.016;3.720;2022-10-31T17:39:38;17.80;99.90
20977;DHT22;10647;51.016;3.720;2022-10-31T17:42:06;17.80;99.90
20977;DHT22;10647;51.016;3.720;2022-10-31T17:44:34;17.80;99.90
20977;DHT22;10647;51.016;3.720;2022-10-31T17:47:02;17.80;99.90
20977;DHT22;10647;51.016;3.720;2022-10-31T17:49:29;17.80;99.90
20977;DHT22;10647;51.016;3.720;2022-10-31T17:51:57;17.80;99.90
20977;DHT22;10647;51.016;3.720;2022-10-31T17:54:24;17.90;99.90
20977;DHT22;10647;51.016;3.720;2022-10-31T17:56:53;17.90;99.90
20977;DHT22;10647;51.016;3.720;2022-10-31T17:59:24;17.90;99.90
20977;DHT22;10647;51.016;3.720;2022-10-31T18:01:58;17.90;99.90
20977;DHT22;10647;51.016;3.720;2022-10-31T18:04:30;17.90;99.90
20977;DHT22;10647;51.016;3.720;2022-10-31T18:06:57;17.90;99.90
20977;DHT22;10647;51.016;3.720;2022-10-31T18:09:25;17.90;99.90
20977;DHT22;10647;51.016;3.720;2022-10-31T18:11:58;17.90;99.90
20977;DHT22;10647;51.016;3.720;2022-10-31T18:14:26;17.90;99.90
20977;DHT22;10647;51.016;3.720;2022-10-31T18:16:56;18.00;99.90
20977;DHT22;10647;51.016;3.720;2022-10-31T18:19:23;18.00;99.90
20977;DHT22;10647;51.016;3.720;2022-10-31T18:21:51;18.00;99.90
20977;DHT22;10647;51.016;3.720;2022-10-31T18:24:20;18.00;99.90